Time;durP1;ratioP1;P1;durP2;ratioP2;P2;SDS_P1;SDS_P2;PMS_P1;PMS_P2;Temp;Humidity;BMP_temperature;BMP_pressure;BME280_temperature;BME280_humidity;BME280_pressure;Samples;Min_cycle;Max_cycle;Signal;HPM_P1;HPM_P2
2023/07/02 09:32:50;;;;;;;9.65;4.00;;;21.50;50.20;;;;;;5127919;27;20383;-77
2023/07/02 09:35:15;;;;;;;10.27;3.90;;;22.10;49.00;;;;;;5106560;28;20077;-78
2023/07/02 09:37:45;;;;;;;9.32;3.30;;;23.10;43.90;;;;;;5106857;28;20016;-77
2023/07/02 09:40:11;;;;;;;9.15;3.85;;;23.50;42.30;;;;;;5107804;28;20027;-78
2023/07/02 09:42:40;;;;;;;9.25;3.50;;;23.30;42.20;;;;;;5126768;22;20121;-79
2023/07/02 09:45:08;;;;;;;9.43;3.72;;;24.10;40.90;;;;;;5075770;28;20481;-80
2023/07/02 09:47:37;;;;;;;10.38;4.22;;;25.10;38.70;;;;;;5068933;28;20025;-80
2023/07/02 09:50:08;;;;;;;10.70;3.72;;;25.90;37.00;;;;;;5068845;28;20090;-79
2023/07/02 09:52:34;;;;;;;7.60;3.53;;;26.80;35.70;;;;;;5068402;28;20028;-79
2023/07/02 09:55:00;;;;;;;6.82;4.00;;;27.30;35.30;;;;;;5087512;28;20012;-80
2023/07/02 09:57:28;;;;;;;10.02;4.25;;;28.30;34.40;;;;;;5087766;28;20016;-80
2023/07/02 09:59:53;;;;;;;9.18;4.10;;;28.20;32.30;;;;;;5086572;28;20342;-81
2023/07/02 10:02:19;;;;;;;7.22;3.30;;;27.30;34.00;;;;;;5087142;28;20023;-80
2023/07/02 10:04:46;;;;;;;9.32;3.65;;;26.20;34.60;;;;;;5087151;28;20032;-79
2023/07/02 10:07:25;;;;;;;9.90;3.45;;;26.40;35.90;;;;;;5087541;28;20016;-80
2023/07/02 10:09:51;;;;;;;6.65;3.42;;;27.50;34.30;;;;;;5063994;28;20052;-80
2023/07/02 10:12:24;;;;;;;6.90;3.22;;;28.60;32.70;;;;;;5069197;28;20075;-79
2023/07/02 10:14:52;;;;;;;9.55;3.60;;;28.30;31.10;;;;;;5086841;28;20086;-79
2023/07/02 10:17:30;;;;;;;11.10;4.00;;;26.70;32.80;;;;;;5087025;28;20478;-79
2023/07/02 10:20:00;;;;;;;9.38;3.70;;;25.60;34.90;;;;;;5087239;28;20396;-80
2023/07/02 10:22:27;;;;;;;9.20;3.57;;;25.00;36.50;;;;;;5080257;28;20026;-80
2023/07/02 10:24:54;;;;;;;11.55;3.92;;;24.60;40.70;;;;;;5087112;28;20062;-80
2023/07/02 10:27:20;;;;;;;10.10;4.43;;;24.40;41.50;;;;;;5068630;28;20023;-79
2023/07/02 10:29:50;;;;;;;10.60;4.40;;;24.40;41.70;;;;;;5086622;28;20574;-80
2023/07/02 10:32:28;;;;;;;10.55;5.30;;;24.80;43.80;;;;;;5086649;28;20043;-80
2023/07/02 10:34:53;;;;;;;12.60;4.50;;;24.40;44.40;;;;;;5085864;28;20047;-80
2023/07/02 10:37:19;;;;;;;18.48;6.15;;;23.90;43.90;;;;;;5087034;28;20051;-79
2023/07/02 10:39:45;;;;;;;14.93;5.50;;;23.20;45.90;;;;;;5086881;28;20020;-80
2023/07/02 10:42:10;;;;;;;15.65;5.35;;;23.00;47.70;;;;;;5084232;28;20450;-79
2023/07/02 10:44:52;;;;;;;11.27;5.03;;;22.90;50.40;;;;;;5091251;22;20043;-76
2023/07/02 10:47:19;;;;;;;13.30;4.88;;;22.90;51.00;;;;;;5068410;28;20626;-76
2023/07/02 10:49:44;;;;;;;13.98;4.75;;;22.70;50.10;;;;;;5065924;28;20070;-74
2023/07/02 10:52:10;;;;;;;16.73;5.22;;;22.40;49.60;;;;;;5072975;28;20538;-76
2023/07/02 10:54:47;;;;;;;13.63;4.68;;;22.20;50.60;;;;;;5058369;28;20489;-76
2023/07/02 10:57:21;;;;;;;19.80;5.75;;;21.80;50.70;;;;;;5030224;28;20017;-75
2023/07/02 10:59:48;;;;;;;13.43;4.20;;;21.80;53.30;;;;;;5046775;28;20450;-75
2023/07/02 11:02:14;;;;;;;13.05;4.45;;;21.60;52.40;;;;;;5053802;28;20028;-75
2023/07/02 11:04:40;;;;;;;11.25;4.30;;;21.40;50.90;;;;;;5053417;28;20082;-76
2023/07/02 11:07:05;;;;;;;12.25;3.88;;;21.40;50.70;;;;;;5053393;28;20103;-75
2023/07/02 11:09:32;;;;;;;10.30;3.80;;;21.20;49.20;;;;;;5053156;28;20474;-76
2023/07/02 11:11:59;;;;;;;10.00;3.40;;;21.20;48.30;;;;;;5053307;28;20029;-78
2023/07/02 11:14:35;;;;;;;12.65;4.07;;;21.70;47.40;;;;;;5049217;28;20021;-76
2023/07/02 11:17:06;;;;;;;10.00;3.47;;;22.00;48.10;;;;;;5059534;28;20013;-76
2023/07/02 11:19:33;;;;;;;9.13;3.05;;;23.20;47.10;;;;;;5035303;28;20029;-77
2023/07/02 11:21:59;;;;;;;8.27;3.03;;;24.40;42.10;;;;;;5053558;28;20041;-75
2023/07/02 11:24:32;;;;;;;6.80;2.92;;;24.30;39.60;;;;;;5052839;28;20019;-75
2023/07/02 11:27:00;;;;;;;12.65;3.40;;;23.90;40.20;;;;;;5035031;28;20021;-76
2023/07/02 11:29:26;;;;;;;10.13;3.05;;;23.80;42.10;;;;;;5034797;28;20424;-78
2023/07/02 11:31:52;;;;;;;7.40;3.22;;;23.30;40.60;;;;;;5034755;28;20035;-78
2023/07/02 11:34:20;;;;;;;10.35;3.38;;;23.40;42.40;;;;;;5034953;28;20361;-77
2023/07/02 11:36:46;;;;;;;8.85;3.47;;;23.10;41.40;;;;;;5051424;28;20025;-78
2023/07/02 11:39:20;;;;;;;10.43;3.35;;;23.00;43.50;;;;;;5052738;28;20020;-78
2023/07/02 11:41:48;;;;;;;10.60;3.00;;;23.00;44.00;;;;;;5047156;28;20108;-77
2023/07/02 11:44:14;;;;;;;7.47;3.17;;;23.30;41.90;;;;;;5066872;22;20032;-80
2023/07/02 11:46:39;;;;;;;7.32;2.80;;;23.40;42.90;;;;;;5054115;28;20031;-80
2023/07/02 11:49:07;;;;;;;9.75;3.63;;;23.20;43.00;;;;;;5072300;28;20100;-80
2023/07/02 11:51:33;;;;;;;10.23;3.20;;;23.10;42.10;;;;;;5071093;28;20028;-80
2023/07/02 11:53:59;;;;;;;8.88;3.45;;;22.60;43.70;;;;;;5070516;28;20027;-81
2023/07/02 11:56:24;;;;;;;7.18;3.00;;;22.60;44.50;;;;;;5071526;28;20099;-80
2023/07/02 11:58:50;;;;;;;8.18;3.90;;;22.60;44.70;;;;;;5071879;28;20021;-77
2023/07/02 12:01:16;;;;;;;10.05;3.03;;;22.40;45.70;;;;;;5070949;28;20029;-80
2023/07/02 12:03:41;;;;;;;13.90;3.88;;;23.20;44.80;;;;;;5071545;28;20016;-80
2023/07/02 12:06:07;;;;;;;7.85;3.28;;;23.80;43.00;;;;;;5071739;28;20078;-79
2023/07/02 12:08:32;;;;;;;11.57;3.60;;;24.00;43.80;;;;;;5072042;28;20021;-80
2023/07/02 12:10:58;;;;;;;11.98;3.63;;;24.30;43.20;;;;;;5071772;28;20032;-80
2023/07/02 12:13:24;;;;;;;11.38;3.63;;;24.40;42.50;;;;;;5071444;28;20108;-80
2023/07/02 12:15:51;;;;;;;14.07;2.95;;;24.80;44.90;;;;;;5070952;28;20112;-80
2023/07/02 12:18:17;;;;;;;17.17;4.28;;;25.00;42.50;;;;;;5071298;28;20453;-80
2023/07/02 12:20:43;;;;;;;7.22;2.97;;;26.10;41.00;;;;;;5071237;28;20103;-80
2023/07/02 12:23:10;;;;;;;12.52;3.30;;;26.00;36.40;;;;;;5053212;28;20035;-82
2023/07/02 12:25:36;;;;;;;7.45;3.50;;;25.40;36.20;;;;;;5071414;28;20016;-81
2023/07/02 12:28:03;;;;;;;5.32;2.45;;;24.80;37.80;;;;;;5053328;28;20024;-81
2023/07/02 12:30:28;;;;;;;6.93;3.30;;;24.60;38.00;;;;;;5052821;28;20020;-80
2023/07/02 12:32:54;;;;;;;9.18;2.90;;;24.30;39.30;;;;;;5071405;28;20028;-81
2023/07/02 12:35:20;;;;;;;8.77;3.45;;;24.00;40.40;;;;;;5069455;28;20745;-81
2023/07/02 12:37:48;;;;;;;7.72;2.88;;;24.10;39.80;;;;;;5070609;28;20025;-80
2023/07/02 12:40:14;;;;;;;7.57;2.78;;;24.30;38.10;;;;;;5070900;28;20028;-80
2023/07/02 12:45:11;;;;;;;8.60;2.92;;;24.80;37.00;;;;;;5032935;28;20041;-77
2023/07/02 12:47:37;;;;;;;10.45;3.58;;;25.40;37.70;;;;;;5017822;28;20119;-77
2023/07/02 12:50:04;;;;;;;8.30;2.90;;;25.80;37.30;;;;;;5043805;28;20449;-77
2023/07/02 12:52:30;;;;;;;10.32;3.17;;;25.80;36.60;;;;;;5040884;28;20057;-78
2023/07/02 12:54:55;;;;;;;9.00;3.30;;;26.20;38.30;;;;;;5015375;28;20494;-77
2023/07/02 12:57:21;;;;;;;8.52;3.17;;;27.10;37.70;;;;;;5011710;28;20025;-78
2023/07/02 12:59:47;;;;;;;12.15;3.75;;;27.20;36.40;;;;;;5011743;28;20013;-76
2023/07/02 13:02:12;;;;;;;11.88;3.70;;;27.50;37.40;;;;;;5011371;28;20079;-78
2023/07/02 13:04:38;;;;;;;14.70;4.25;;;27.90;37.90;;;;;;5011918;28;20382;-78
2023/07/02 13:07:04;;;;;;;10.10;3.75;;;27.50;38.70;;;;;;5011659;28;20034;-76
2023/07/02 13:09:30;;;;;;;11.40;4.35;;;27.10;39.10;;;;;;5016330;28;20136;-78
2023/07/02 13:11:56;;;;;;;11.45;3.42;;;25.80;38.60;;;;;;5017298;28;20553;-78
2023/07/02 13:14:21;;;;;;;12.38;3.55;;;25.00;40.20;;;;;;5018321;28;20017;-78
2023/07/02 13:16:47;;;;;;;15.13;3.67;;;24.40;43.90;;;;;;5011129;28;20116;-79
2023/07/02 13:19:13;;;;;;;12.70;4.13;;;24.00;45.50;;;;;;5011588;28;20022;-78
2023/07/02 13:21:39;;;;;;;15.65;4.63;;;23.60;46.10;;;;;;5011522;28;20041;-76
2023/07/02 13:24:05;;;;;;;12.77;3.50;;;22.80;48.90;;;;;;5011736;28;20022;-78
2023/07/02 13:26:30;;;;;;;9.43;2.67;;;22.50;49.50;;;;;;5012430;28;20462;-77
2023/07/02 13:28:56;;;;;;;13.05;3.38;;;22.80;49.30;;;;;;5011445;28;20056;-78
2023/07/02 13:31:22;;;;;;;12.48;3.72;;;22.90;49.10;;;;;;5010651;28;20018;-77
2023/07/02 13:33:49;;;;;;;14.40;3.70;;;22.90;50.60;;;;;;5010962;28;20026;-77
2023/07/02 13:36:14;;;;;;;13.65;4.18;;;22.60;50.20;;;;;;5011553;28;20014;-77
2023/07/02 13:38:40;;;;;;;18.15;3.42;;;22.60;51.60;;;;;;5010442;28;20026;-78
2023/07/02 13:41:06;;;;;;;14.98;3.50;;;22.60;52.30;;;;;;5011021;28;20030;-78
2023/07/02 13:43:31;;;;;;;12.63;3.22;;;22.50;51.10;;;;;;5040684;22;20095;-79
2023/07/02 13:45:57;;;;;;;13.18;3.47;;;24.00;50.60;;;;;;5032949;28;20386;-81
2023/07/02 13:48:23;;;;;;;16.27;3.88;;;25.50;47.30;;;;;;5032765;28;20017;-81
2023/07/02 13:50:49;;;;;;;11.73;3.08;;;26.50;42.60;;;;;;5033008;28;20105;-80
2023/07/02 13:53:14;;;;;;;13.05;3.47;;;26.40;42.40;;;;;;5031250;28;20466;-80
2023/07/02 13:55:40;;;;;;;20.27;3.13;;;26.70;43.60;;;;;;5011937;28;20033;-80
2023/07/02 13:58:06;;;;;;;18.63;4.03;;;26.10;42.70;;;;;;4993478;28;20026;-80
2023/07/02 14:00:31;;;;;;;13.00;3.08;;;25.10;44.60;;;;;;5010975;28;20545;-79
2023/07/02 14:02:58;;;;;;;15.07;4.25;;;24.20;47.30;;;;;;5014812;28;20080;-80
2023/07/02 14:05:24;;;;;;;14.18;3.70;;;24.20;49.00;;;;;;5014102;28;20478;-80
2023/07/02 14:07:50;;;;;;;20.33;4.03;;;25.00;47.60;;;;;;5011583;28;20036;-78
2023/07/02 14:10:15;;;;;;;17.27;3.50;;;25.10;46.50;;;;;;5011632;28;20355;-80
2023/07/02 14:12:42;;;;;;;13.77;3.50;;;24.40;46.30;;;;;;5011250;28;20034;-80
2023/07/02 14:15:09;;;;;;;17.10;3.88;;;23.20;49.10;;;;;;5011621;28;20022;-80
2023/07/02 14:17:35;;;;;;;15.13;3.85;;;22.90;52.30;;;;;;5018894;28;20505;-80
2023/07/02 14:20:02;;;;;;;13.13;3.05;;;23.80;51.40;;;;;;4997523;28;20096;-80
2023/07/02 14:22:28;;;;;;;14.82;4.07;;;23.70;50.90;;;;;;4997023;28;20383;-79
2023/07/02 14:24:54;;;;;;;16.25;3.88;;;23.30;52.30;;;;;;5014906;28;20018;-78
2023/07/02 14:27:19;;;;;;;14.40;4.13;;;23.70;51.30;;;;;;5014794;28;20506;-80
2023/07/02 14:29:47;;;;;;;12.38;3.60;;;24.80;49.40;;;;;;5014871;28;20022;-79
2023/07/02 14:32:13;;;;;;;15.77;3.45;;;25.20;47.00;;;;;;5014855;28;20022;-79
2023/07/02 14:34:39;;;;;;;13.55;3.45;;;24.30;45.60;;;;;;5024041;28;20033;-79
2023/07/02 14:37:05;;;;;;;12.30;3.20;;;23.90;48.80;;;;;;5018068;28;20026;-80
2023/07/02 14:39:31;;;;;;;12.00;3.15;;;23.20;49.10;;;;;;5001943;28;20037;-80
2023/07/02 14:41:56;;;;;;;14.95;4.03;;;23.80;50.60;;;;;;5014994;28;20429;-80
2023/07/02 14:44:22;;;;;;;17.20;3.40;;;23.30;49.50;;;;;;5052533;23;20449;-76
2023/07/02 14:46:47;;;;;;;13.45;3.47;;;23.90;49.50;;;;;;5018232;28;20387;-78
2023/07/02 14:49:14;;;;;;;21.48;4.43;;;24.40;47.70;;;;;;5038674;28;20659;-78
2023/07/02 14:51:40;;;;;;;13.10;3.20;;;23.50;48.50;;;;;;5035872;28;20108;-76
2023/07/02 14:54:06;;;;;;;13.30;3.95;;;23.10;50.80;;;;;;5031770;28;20013;-76
2023/07/02 14:56:33;;;;;;;18.65;3.33;;;23.00;49.90;;;;;;5038561;28;20069;-76
2023/07/02 14:58:59;;;;;;;13.98;3.75;;;23.50;50.00;;;;;;5034684;28;20040;-76
2023/07/02 15:01:25;;;;;;;16.38;3.58;;;23.10;50.00;;;;;;5039100;28;20036;-77
2023/07/02 15:03:51;;;;;;;15.88;3.67;;;22.10;53.00;;;;;;5038589;28;20025;-78
2023/07/02 15:06:18;;;;;;;14.98;3.45;;;21.60;54.90;;;;;;5040745;28;20037;-76
2023/07/02 15:08:44;;;;;;;15.80;3.75;;;21.30;54.50;;;;;;5043761;28;20022;-76
2023/07/02 15:11:12;;;;;;;20.33;3.33;;;21.00;55.50;;;;;;5039899;28;20017;-77
2023/07/02 15:13:38;;;;;;;21.13;4.40;;;21.10;56.60;;;;;;5021407;28;20026;-74
2023/07/02 15:16:05;;;;;;;15.10;4.18;;;21.50;58.60;;;;;;5041718;28;20008;-76
2023/07/02 15:18:30;;;;;;;18.67;3.58;;;22.20;57.40;;;;;;5037643;28;20053;-77
2023/07/02 15:20:57;;;;;;;18.02;3.65;;;22.40;54.90;;;;;;5033504;28;20571;-76
2023/07/02 15:23:24;;;;;;;22.00;4.20;;;23.10;54.80;;;;;;5045039;28;20025;-76
2023/07/02 15:26:04;;;;;;;16.48;4.18;;;23.10;54.00;;;;;;5034002;28;20018;-75
2023/07/02 15:28:30;;;;;;;19.45;3.55;;;23.00;50.80;;;;;;5033268;28;20018;-76
2023/07/02 15:30:59;;;;;;;15.25;4.18;;;22.00;53.90;;;;;;5038622;28;20508;-75
2023/07/02 15:33:25;;;;;;;16.58;3.70;;;21.90;56.60;;;;;;5032757;28;20029;-76
2023/07/02 15:35:51;;;;;;;18.60;4.47;;;21.70;56.40;;;;;;5039195;28;20047;-76
2023/07/02 15:38:17;;;;;;;32.88;4.72;;;22.30;57.50;;;;;;5029408;28;20052;-77
2023/07/02 15:40:47;;;;;;;22.23;3.63;;;22.60;54.00;;;;;;5029808;28;20512;-76
2023/07/02 15:43:13;;;;;;;16.05;3.75;;;22.70;54.00;;;;;;5070176;22;20045;-79
2023/07/02 15:45:38;;;;;;;20.42;4.82;;;22.50;52.80;;;;;;5041712;28;20047;-79
2023/07/02 15:48:04;;;;;;;17.60;3.47;;;22.60;52.10;;;;;;5041129;28;20025;-80
2023/07/02 15:50:30;;;;;;;25.40;4.75;;;22.40;53.60;;;;;;5039182;28;20048;-79
2023/07/02 15:52:56;;;;;;;14.18;3.78;;;22.60;56.10;;;;;;5031313;28;20454;-80
2023/07/02 15:55:21;;;;;;;18.58;4.28;;;23.10;55.50;;;;;;5031700;28;20022;-80
2023/07/02 15:57:48;;;;;;;24.52;4.32;;;23.10;55.60;;;;;;5031938;28;20033;-79
2023/07/02 16:00:14;;;;;;;17.23;4.15;;;23.20;54.70;;;;;;5031693;28;20026;-80
2023/07/02 16:02:44;;;;;;;24.73;4.65;;;22.30;55.10;;;;;;5032647;28;20052;-79
2023/07/02 16:05:10;;;;;;;20.73;4.13;;;22.10;57.40;;;;;;5038897;28;20067;-79
2023/07/02 16:07:36;;;;;;;24.42;4.00;;;21.50;57.40;;;;;;5039665;28;20025;-79
2023/07/02 16:10:05;;;;;;;24.65;4.45;;;21.10;60.80;;;;;;5040454;28;20020;-79
2023/07/02 16:12:31;;;;;;;18.13;5.68;;;21.20;59.90;;;;;;5039610;28;20025;-78
2023/07/02 16:14:56;;;;;;;32.35;5.18;;;21.40;59.70;;;;;;5040253;28;20027;-80
2023/07/02 16:17:22;;;;;;;17.55;5.07;;;21.30;59.10;;;;;;5039989;28;20044;-79
2023/07/02 16:19:48;;;;;;;18.67;3.97;;;21.00;59.60;;;;;;5040846;28;20897;-80
2023/07/02 16:22:14;;;;;;;21.58;4.82;;;21.40;60.30;;;;;;5038982;28;20631;-80
2023/07/02 16:24:40;;;;;;;19.42;5.53;;;21.70;60.40;;;;;;5039868;28;20022;-78
2023/07/02 16:27:13;;;;;;;19.55;3.80;;;21.80;61.60;;;;;;5040130;28;20477;-79
2023/07/02 16:29:39;;;;;;;23.60;4.13;;;21.80;60.40;;;;;;5039776;28;20009;-78
2023/07/02 16:32:05;;;;;;;20.67;4.32;;;21.70;61.10;;;;;;5040169;28;20083;-78
2023/07/02 16:34:31;;;;;;;23.20;4.28;;;21.80;60.70;;;;;;5041288;28;20052;-78
2023/07/02 16:36:58;;;;;;;21.70;4.47;;;21.50;59.90;;;;;;5032245;28;20034;-79
2023/07/02 16:39:24;;;;;;;19.20;4.85;;;21.20;60.70;;;;;;5033412;28;20013;-79
2023/07/02 16:41:51;;;;;;;24.60;5.13;;;21.00;60.90;;;;;;5014132;28;20025;-79
2023/07/02 16:44:20;;;;;;;20.17;4.05;;;20.80;63.00;;;;;;5078774;23;20448;-77
2023/07/02 16:46:48;;;;;;;14.48;3.95;;;21.00;63.10;;;;;;5035976;28;20028;-76
2023/07/02 16:49:15;;;;;;;21.92;4.60;;;21.10;64.40;;;;;;5051845;28;20017;-78
2023/07/02 16:51:44;;;;;;;18.50;4.45;;;21.10;64.20;;;;;;5054074;28;20558;-77
2023/07/02 16:54:15;;;;;;;29.15;4.82;;;21.00;63.10;;;;;;5062941;28;20024;-77
2023/07/02 16:56:43;;;;;;;19.77;5.45;;;20.90;64.00;;;;;;5047394;28;20393;-76
2023/07/02 16:59:12;;;;;;;26.85;5.13;;;20.60;64.40;;;;;;5070722;28;20017;-77
2023/07/02 17:01:38;;;;;;;29.95;5.28;;;20.60;65.80;;;;;;5060194;28;20032;-76
2023/07/02 17:04:07;;;;;;;24.20;5.55;;;20.60;67.10;;;;;;5070476;28;20043;-77
2023/07/02 17:06:33;;;;;;;22.70;5.20;;;20.70;66.50;;;;;;5070827;28;20365;-76
2023/07/02 17:09:31;;;;;;;21.00;4.03;;;20.50;68.20;;;;;;5052593;28;20016;-77
2023/07/02 17:12:00;;;;;;;40.38;6.13;;;20.50;67.40;;;;;;5064956;28;20028;-76
2023/07/02 17:14:30;;;;;;;22.58;4.50;;;20.20;68.20;;;;;;5073056;28;20101;-79
2023/07/02 17:17:19;;;;;;;18.63;4.60;;;20.30;68.50;;;;;;5072017;28;20017;-77
2023/07/02 17:19:53;;;;;;;27.27;5.75;;;20.10;68.90;;;;;;5070184;28;20120;-77
2023/07/02 17:22:23;;;;;;;32.15;5.47;;;20.00;70.50;;;;;;5069544;28;20085;-77
2023/07/02 17:24:54;;;;;;;24.52;4.78;;;19.90;70.90;;;;;;5069906;28;20108;-77
2023/07/02 17:27:24;;;;;;;33.07;5.07;;;19.70;70.50;;;;;;5062549;28;20494;-75
2023/07/02 17:29:55;;;;;;;20.23;4.90;;;19.50;71.80;;;;;;5070664;28;20016;-76
2023/07/02 17:32:22;;;;;;;33.15;6.53;;;19.50;72.70;;;;;;5069818;28;20069;-77
2023/07/02 17:34:48;;;;;;;23.20;4.80;;;19.50;71.10;;;;;;5070055;28;20029;-75
2023/07/02 17:37:16;;;;;;;21.48;4.47;;;19.60;71.50;;;;;;5070438;28;20822;-76
2023/07/02 17:39:43;;;;;;;21.33;4.45;;;19.70;71.10;;;;;;5071743;28;20095;-78
2023/07/02 17:42:09;;;;;;;26.75;4.60;;;19.60;70.80;;;;;;5070597;28;20044;-78
2023/07/02 17:44:40;;;;;;;24.90;5.15;;;19.40;69.70;;;;;;5105160;22;20044;-78
2023/07/02 17:47:08;;;;;;;24.35;5.70;;;19.40;71.40;;;;;;5090396;28;20021;-78
2023/07/02 17:49:37;;;;;;;20.50;5.03;;;19.30;71.50;;;;;;5090299;28;20013;-79
2023/07/02 17:52:04;;;;;;;15.82;4.53;;;19.30;72.00;;;;;;5090166;28;20484;-80
2023/07/02 17:54:38;;;;;;;29.98;5.50;;;19.00;71.90;;;;;;5093468;28;20028;-80
2023/07/02 17:57:06;;;;;;;20.83;5.22;;;18.80;74.20;;;;;;5093422;28;20028;-81
2023/07/02 17:59:33;;;;;;;31.50;4.88;;;18.80;75.00;;;;;;5085003;28;20448;-76
2023/07/02 18:02:01;;;;;;;20.95;4.40;;;19.10;74.80;;;;;;5086311;28;20034;-79
2023/07/02 18:04:27;;;;;;;21.02;5.03;;;19.00;74.60;;;;;;5086472;28;20028;-78
2023/07/02 18:07:07;;;;;;;20.92;5.68;;;18.90;75.00;;;;;;5086238;28;20016;-79
2023/07/02 18:09:33;;;;;;;24.90;5.53;;;18.70;76.30;;;;;;5059917;28;20025;-79
2023/07/02 18:11:58;;;;;;;24.52;5.55;;;18.60;78.60;;;;;;5085961;28;20024;-78
2023/07/02 18:14:25;;;;;;;20.08;4.30;;;18.50;78.20;;;;;;5090891;28;20024;-79
2023/07/02 18:16:55;;;;;;;18.30;4.07;;;18.40;78.40;;;;;;5083931;28;20048;-79
2023/07/02 18:19:26;;;;;;;20.13;4.55;;;18.30;79.40;;;;;;5087629;28;21494;-80
2023/07/02 18:22:00;;;;;;;25.95;6.30;;;18.30;80.00;;;;;;5089043;28;20044;-79
2023/07/02 18:24:30;;;;;;;25.80;5.18;;;18.20;81.70;;;;;;5074084;28;20489;-78
2023/07/02 18:26:57;;;;;;;24.30;5.25;;;18.20;81.70;;;;;;5086440;28;20024;-78
2023/07/02 18:29:23;;;;;;;27.48;5.55;;;18.20;81.80;;;;;;5083586;28;20023;-79
2023/07/02 18:31:48;;;;;;;26.55;5.43;;;18.20;81.40;;;;;;5086408;28;20021;-78
2023/07/02 18:34:15;;;;;;;23.85;5.78;;;18.30;81.80;;;;;;5090760;28;20020;-78
2023/07/02 18:36:46;;;;;;;31.13;6.28;;;18.30;82.40;;;;;;5087373;28;20020;-79
2023/07/02 18:39:12;;;;;;;39.13;6.47;;;18.30;83.20;;;;;;5090492;28;20036;-79
2023/07/02 18:41:38;;;;;;;22.92;5.35;;;18.20;83.10;;;;;;5084370;28;20033;-77
2023/07/02 18:44:03;;;;;;;27.05;5.97;;;18.20;84.50;;;;;;5071406;28;20035;-78
2023/07/02 18:46:31;;;;;;;38.35;6.80;;;18.20;84.30;;;;;;5090580;28;20479;-79
2023/07/02 18:48:59;;;;;;;31.25;5.57;;;18.10;84.50;;;;;;5067041;28;20028;-78
2023/07/02 18:51:24;;;;;;;29.17;5.13;;;18.10;84.20;;;;;;5078475;28;20390;-79
2023/07/02 18:53:50;;;;;;;25.73;5.95;;;18.10;83.60;;;;;;5085599;28;20020;-79
2023/07/02 18:56:16;;;;;;;30.80;5.43;;;18.10;83.50;;;;;;5090512;28;20495;-80
2023/07/02 18:58:41;;;;;;;28.35;5.88;;;18.10;83.50;;;;;;5068168;28;20480;-79
2023/07/02 19:01:09;;;;;;;30.55;6.90;;;18.10;84.00;;;;;;5084708;28;20115;-80
2023/07/02 19:03:35;;;;;;;22.50;4.80;;;18.10;83.70;;;;;;5092180;28;20027;-79
2023/07/02 19:06:08;;;;;;;18.33;4.93;;;18.00;84.10;;;;;;5092296;28;20016;-80
2023/07/02 19:08:34;;;;;;;26.65;4.60;;;17.90;83.70;;;;;;5092504;28;20027;-80
2023/07/02 19:11:02;;;;;;;26.15;5.72;;;17.80;85.20;;;;;;5074265;28;20034;-79
2023/07/02 19:13:28;;;;;;;29.80;5.90;;;17.70;84.70;;;;;;5097003;22;20049;-77
2023/07/02 19:15:54;;;;;;;30.77;5.53;;;17.60;84.60;;;;;;5047896;28;20038;-76
2023/07/02 19:18:20;;;;;;;23.17;5.22;;;17.60;85.50;;;;;;5038150;28;20097;-78
2023/07/02 19:20:46;;;;;;;27.40;4.97;;;17.50;86.10;;;;;;5033565;28;20021;-77
2023/07/02 19:23:12;;;;;;;24.50;5.25;;;17.40;86.70;;;;;;5043322;28;20025;-77
2023/07/02 19:25:38;;;;;;;24.90;4.97;;;17.40;87.20;;;;;;5039974;28;20536;-77
2023/07/02 19:28:04;;;;;;;29.20;5.50;;;17.40;87.40;;;;;;5041915;28;20033;-77
2023/07/02 19:30:30;;;;;;;26.92;5.63;;;17.30;87.60;;;;;;5035529;28;20052;-78
2023/07/02 19:32:58;;;;;;;28.02;5.80;;;17.20;87.00;;;;;;5032662;28;20060;-77
2023/07/02 19:35:24;;;;;;;21.73;5.47;;;17.20;86.50;;;;;;5045680;28;20474;-78
2023/07/02 19:37:51;;;;;;;28.98;4.60;;;17.20;87.20;;;;;;5032735;28;20017;-76
2023/07/02 19:40:17;;;;;;;27.75;5.60;;;17.20;88.10;;;;;;5028707;28;20025;-75
2023/07/02 19:42:44;;;;;;;25.98;5.20;;;17.20;88.40;;;;;;5029893;28;20115;-77
2023/07/02 19:45:10;;;;;;;30.92;5.47;;;17.10;89.20;;;;;;5030730;28;20090;-76
2023/07/02 19:47:36;;;;;;;20.75;5.90;;;17.10;89.20;;;;;;5016490;28;20065;-76
2023/07/02 19:50:02;;;;;;;28.83;5.32;;;17.10;89.70;;;;;;5035955;28;20099;-77
2023/07/02 19:52:29;;;;;;;23.35;4.88;;;17.00;90.20;;;;;;5040059;28;20075;-77
2023/07/02 19:55:01;;;;;;;24.83;5.63;;;17.00;90.30;;;;;;5029615;28;20393;-76
2023/07/02 19:57:27;;;;;;;33.10;5.03;;;16.90;90.20;;;;;;5011219;28;20028;-76
2023/07/02 19:59:53;;;;;;;23.95;5.55;;;16.90;90.10;;;;;;5038129;28;20021;-77
2023/07/02 20:02:19;;;;;;;23.17;4.93;;;16.80;90.00;;;;;;5035154;28;20044;-78
2023/07/02 20:04:47;;;;;;;29.98;5.63;;;16.80;90.10;;;;;;5039536;28;20021;-76
2023/07/02 20:07:16;;;;;;;27.77;5.80;;;16.70;90.40;;;;;;5038672;28;20028;-77
2023/07/02 20:09:42;;;;;;;19.23;4.68;;;16.70;90.60;;;;;;5036789;28;20025;-77
2023/07/02 20:12:10;;;;;;;25.95;4.95;;;16.60;90.90;;;;;;5030197;28;20033;-76
2023/07/02 20:14:36;;;;;;;32.10;5.63;;;16.60;91.10;;;;;;5065896;22;20064;-88
2023/07/02 20:17:04;;;;;;;34.35;5.30;;;16.50;91.20;;;;;;5058371;28;20123;-89
2023/07/02 20:19:30;;;;;;;22.13;4.88;;;16.40;91.40;;;;;;5084015;28;20227;-90
2023/07/02 20:21:56;;;;;;;24.30;4.93;;;16.30;91.50;;;;;;5064632;28;20052;-86
2023/07/02 20:24:22;;;;;;;23.23;5.10;;;16.30;91.40;;;;;;5049018;28;20021;-90
2023/07/02 20:26:55;;;;;;;24.83;5.47;;;16.30;91.50;;;;;;5046227;28;20033;-86
2023/07/02 20:29:22;;;;;;;22.42;5.68;;;16.20;91.60;;;;;;5043670;28;20678;-89
2023/07/02 20:31:50;;;;;;;22.58;5.28;;;16.10;91.90;;;;;;5047638;28;20027;-87
2023/07/02 20:34:16;;;;;;;34.38;6.57;;;16.00;92.30;;;;;;5045755;28;20028;-88
2023/07/02 20:36:48;;;;;;;29.17;6.25;;;15.90;92.50;;;;;;5046081;28;20116;-89
2023/07/02 20:39:13;;;;;;;22.77;5.82;;;15.90;92.50;;;;;;5039460;28;20514;-88
2023/07/02 20:41:45;;;;;;;27.70;5.90;;;15.80;92.70;;;;;;5040875;28;20032;-89
2023/07/02 20:44:11;;;;;;;25.38;5.20;;;15.70;93.00;;;;;;5040306;28;20162;-88
2023/07/02 20:46:45;;;;;;;24.65;5.18;;;15.50;93.50;;;;;;5040666;28;20056;-89
2023/07/02 20:49:14;;;;;;;24.48;5.13;;;15.40;93.70;;;;;;5043495;28;20505;-89
2023/07/02 20:51:41;;;;;;;26.20;5.30;;;15.30;94.00;;;;;;5041353;28;20089;-89
2023/07/02 20:54:07;;;;;;;17.63;4.75;;;15.20;94.10;;;;;;5043445;28;20025;-89
2023/07/02 20:56:33;;;;;;;26.05;5.45;;;15.20;94.60;;;;;;5036437;28;20024;-89
2023/07/02 20:58:58;;;;;;;21.20;5.32;;;15.10;94.50;;;;;;5034309;28;20363;-87
2023/07/02 21:01:24;;;;;;;24.73;5.28;;;15.10;94.40;;;;;;5033561;28;20516;-87
2023/07/02 21:03:50;;;;;;;19.25;4.10;;;15.00;94.70;;;;;;5037722;28;20103;-88
2023/07/02 21:06:15;;;;;;;17.23;4.25;;;14.90;94.60;;;;;;5040408;28;20761;-88
2023/07/02 21:08:41;;;;;;;21.88;4.53;;;14.90;94.80;;;;;;5045347;28;20035;-88
2023/07/02 21:11:07;;;;;;;19.50;5.03;;;14.90;93.70;;;;;;5035456;28;20084;-87
2023/07/02 21:13:33;;;;;;;18.77;3.65;;;14.90;93.10;;;;;;5038741;28;20060;-88
2023/07/02 21:16:00;;;;;;;19.08;3.78;;;14.90;92.30;;;;;;5033002;28;20048;-87
2023/07/02 21:18:27;;;;;;;17.67;3.15;;;14.90;91.20;;;;;;5034606;28;20013;-87
2023/07/02 21:20:53;;;;;;;15.73;2.92;;;14.90;91.00;;;;;;5033754;28;20021;-88
2023/07/02 21:23:19;;;;;;;11.65;3.20;;;14.80;90.30;;;;;;5033353;28;20090;-89
2023/07/02 21:25:58;;;;;;;20.23;3.60;;;14.80;90.00;;;;;;5032492;28;20024;-90
2023/07/02 21:28:25;;;;;;;21.92;3.30;;;14.70;90.20;;;;;;5031643;28;20027;-89
2023/07/02 21:30:51;;;;;;;13.13;2.80;;;14.60;88.50;;;;;;5030586;28;20032;-89
2023/07/02 21:33:17;;;;;;;12.73;3.03;;;14.60;90.60;;;;;;5030350;28;20021;-89
2023/07/02 21:35:42;;;;;;;12.45;2.58;;;14.50;89.60;;;;;;5034788;28;20040;-88
2023/07/02 21:38:08;;;;;;;11.80;2.63;;;14.40;89.10;;;;;;5030168;28;20028;-89
2023/07/02 21:40:34;;;;;;;14.48;2.63;;;14.30;88.40;;;;;;5024710;28;20016;-89
2023/07/02 21:43:00;;;;;;;13.75;3.25;;;14.30;90.70;;;;;;5027750;28;20442;-89
2023/07/02 21:45:26;;;;;;;9.35;2.70;;;14.10;90.10;;;;;;5022142;28;20384;-88
2023/07/02 21:47:51;;;;;;;14.90;2.70;;;14.00;90.30;;;;;;5020687;28;20021;-88
2023/07/02 21:50:17;;;;;;;10.32;1.92;;;14.00;86.20;;;;;;5019554;28;20029;-87
2023/07/02 21:52:43;;;;;;;14.32;3.17;;;14.00;84.00;;;;;;5030699;28;20028;-89
2023/07/02 21:55:10;;;;;;;6.88;1.92;;;13.90;85.90;;;;;;5020349;28;20079;-89
2023/07/02 21:57:35;;;;;;;8.68;2.50;;;13.80;85.60;;;;;;5023786;28;20128;-86
2023/07/02 22:00:03;;;;;;;9.23;2.00;;;13.70;86.50;;;;;;5030015;28;20088;-90
2023/07/02 22:02:28;;;;;;;13.93;2.50;;;13.70;85.40;;;;;;5060271;28;20031;-88
2023/07/02 22:04:54;;;;;;;13.60;2.60;;;13.60;85.50;;;;;;5057793;28;20029;-90
2023/07/02 22:07:20;;;;;;;11.00;2.25;;;13.50;86.80;;;;;;5057036;28;20047;-90
2023/07/02 22:09:46;;;;;;;10.10;3.17;;;13.60;81.30;;;;;;5062585;28;20060;-88
2023/07/02 22:12:11;;;;;;;6.40;2.10;;;13.50;85.10;;;;;;5054480;28;20017;-89